Jansen, NE

3:33 AM CDT on July 10, 2014 (GMT -0500)
NEDOR Harbine on HWY 136 @ MP 161 (MNE028) Elev 1447 ft | 40.19 °N, 96.98 °W | Change Station

Current weather conditions updated 35 minutes ago

Clear
Clear
65.0 °F
Feels Like 65.0 °F
N
1.0
Wind Variable Wind from South

Today is forecast to be Much Warmer than yesterday. Cloudy with morning rain.

Today
High -- | Low -- °F
--% Chance of Precip.
Yesterday
High -- | Low -- °F
Precip. -- in
6:07 AM 8:58 PM
Waxing Gibbous, 94% visible
Pressure 29.97 in
Visibility 10.0 miles
Clouds Clear
Dew Point 63.0 °F
Humidity 92%
Rainfall -999.00 in
Snow Depth Not available.
UV 0 out of 12
Pollen 3.60 out of 12
Air Quality Not available.
Flu Activity Sporadic
METAR KBIE 100815Z AUTO 15006KT 10SM CLR 18/17 A2997 RMK AO2 T01770165

More Conditions Fewer Conditions

Pressure 29.97 in
Visibility 10.0 miles
Clouds Clear
Dew Point 63.0 °F
Humidity 92%
Rainfall -999.00 in
Snow Depth Not available.
UV 0 out of 12
Pollen 3.60 out of 12
Air Quality Not available.
Flu Activity Sporadic
METAR KBIE 100815Z AUTO 15006KT 10SM CLR 18/17 A2997 RMK AO2 T01770165

More Conditions Fewer Conditions

10-Day Weather Forecast

Almanac

Astronomy

Jul. 10, 2014 Rise Set
Actual Time 6:07 AM CDT 8:58 PM CDT
Civil Twilight 5:35 AM CDT 9:31 PM CDT
Nautical Twilight 4:54 AM CDT 10:11 PM CDT
Astronomical Twilight 4:07 AM CDT 10:58 PM CDT
Moon 7:12 PM CDT 4:20 AM CDT
Length of Visible Light 15h 55m
Length of Day
14h 51m
Tomorrow will be 1m 8s shorter.
Waxing Gibbous, 94% of the Moon is Illuminated
Today
Waxing Gibbous
Jul 12
Full
Jul 18
Last Quarter
Jul 26
New
Aug 3
First Quarter

Today's Extremes

State Highs State Lows

Community

WunderPhotos

Upload Photos

1,732,083 photos uploaded!

Nearby

Snow Depth

Station Depth Elevation
No new snow has been reported.

Earthquake Activity

City Distance Mag. Time & Date
No recent earthquake activity has been reported nearby.
Minimum magnitude displayed is 2.5.

Coastal Water Temperatures

Place Temperature
No Stations Reporting

Nearby Weather Stations

Station Location Temp. Dew Point Humidity Wind Precip. Elev Updated Type
MesoWest STEEL1 , Steele City, NE 66 °F - - North  at  - 0.00 in / hr 1275 ft 2:00 AM CDT MADIS
MesoWest FAIRB2 , Fairbury, NE 65 °F - - North  at  - 0.00 in / hr 1321 ft 2:00 AM CDT MADIS
Crystal Springs Campground, Fairbury, NE 65.8 °F 63 °F 91% South  at  0.0 mph 0.09 in / hr 1424 ft 3:33 AM CDT Rapid Fire
MesoWest ALEXR1 , Alexandria, NE 64 °F - - North  at  - 0.00 in / hr 1397 ft 2:00 AM CDT MADIS
MesoWest BREME1 , Hanover, KS 65 °F - - North  at  - 0.00 in / hr 1318 ft 2:00 AM CDT MADIS
N0NB, Bremen, KS 67.8 °F 64 °F 88% East  at  0.0 mph 0.00 in / hr 1312 ft 3:30 AM CDT Normal

Show More Stations Show Fewer Stations